KNMI Weerbulletins

Hier vind u de KMNI verwachtingen en de waarnemingen

Bron: KNMI website
Laatste update op 21-10-2018 om 17:44
ZCZC
FBNL50 EHDB 211423
WEERBULLETIN VOOR DE LUCHTVAART
.
GELDIG 211500/212100 UTC
.
SITUATIE: EEN HOGEDRUKGEBIED BOVEN HET MIDDEN VAN DUITSLAND HOUDT
BOVEN ONZE OMGEVING EEN ZUID TOT ZUIDWESTELIJKE STROMING IN STAND.
EEN NO-ZW GEORIENTEERDE FRONTALE ZONE BEREIKT GEDURENDE DE TWEEDE
HELFT VAN DE PERIODE HET NOORD(WEST)EN. OP NADERING VAN DEZE ZONE
WORDT DE STROMING IN DE TWEEDE HELFT VAN DE PERIODE WESTELIJK. DE
OPBOUW IS ONSTABIEL TOT CA. 2000 VT, ZEER SPOEDIG VORMT ZICH EEN
GRONDINVERSIE.
.
SIGNIFICANT WEER: IN DE TWEEDE HELFT VAN DE PERIODE VOORAL IN HET
ZUIDEN EN OOSTEN VORMING VAN NEVEL EN/OF GRONDMIST EN KANS OP EEN
ENKELE MISTBANK.
.
WIND: ZUID TOT ZUIDWEST 4-8 KN, IN HET NOORDEN 9-14 KN EN IN HET
ZUIDOOSTEN VARIABEL 1-4 KN. VERDER LANGS DE KUST EN BOVEN HET
IJSSELMEER 12-17 KN, IN HET NOORDWESTELIJK KUSTGEBIED 15-20 KN.
LANDINWAARTS IN DE EERSTE HELFT VAN DE PERIODE 2-3 KN AFNEMEND EN OP
NADERING VAN DE FRONTALE ZONE RUIMT DE WIND IN HET NOORDWESTEN IN DE
TWEEDE HELFT VAN DE PERIODE NAAR WEST TOT NOORDWEST.
.
BEWOLKING: OP VEEL PLAATSEN BKN SC 3500-4500 VT, TOPPEN CA. 5000 VT.
IN HET NOORDWESTEN LOKAAL BKN SC 1000-1500 VT, TOPPEN 2000 VT. IN DE
FRONTALE ZONE BKN SC 1000-1500 VT EN LOKAAL BKN ST 500-1000 VT.
GELAAGD TOT CA. 8000 VT.
.
ZICHT: MEER DAN 10 KM, IN HET WADDENGEBIED LOKAAL 5-8 KM. IN
NEVEL/GRONDMIST 3-5 KM, LOKAAL 1500-3000 M. IN EEN MISTBANK MINDER
DAN 1500 M.
.
NULGRADEN NIVEAU: BOVEN FL100.
.
HOOGTEWINDEN EN TEMPERATUREN:
       15 UTC:       21 UTC:
0500VT 200/10-20 +13 260/10-15 +13
1500VT 210/10-25 +10 280/15-20 +11
3000VT 250/10-20 +10 290/05-15 +10
FL 050 290/10-25 +08 290/10-20 +08
FL 100 VRB/05    +03 260/10-25 +02
HOOGSTE WINDSNELHEDEN IN HET NW. OP FL050 EN 3000 VT WIND IN HET
ZUIDOOSTEN 30-60 GRADEN GERUIMD.
.
THERMIEK: AANVANKELIJK LOKAAL ZWAK, ZEER SPOEDIG UITDOVEND.
.
VOORUITZICHTEN VOOR MORGEN: DE EERDERGENOEMDE FRONTALE ZONE LIGT
BOVEN HET ZUID(OOST)EN, TREKT ZUIDOOSTWAARTS EN VERLAAT ROND HET
MIDDAGUUR HET ZUIDEN VAN LIMBURG. ERACHTER VOERT EEN NOORD TOT
NOORDWESTELIJKE STROMING MARITIEM POLAIRE LUCHT AAN. IN DE FRONTALE
ZONE AF EN TOE LICHTE (MOT)REGEN EN ST. VERDER LANGS DE KUST EN IN
HET NOORDWESTELIJK KUSTGEBIED LOKAAL MATIGE TURBULENTIE.
.
DAGLICHTPERIODE: 06.00 TOT 16.49 UTC.=
NNNN
Bron: KNMI website
Laatste update op 21-10-2018 om 17:44
ZCZC
FC210900 EHGR     GILZE-RIJEN/GILZE-RIJEN   NLD   14 m.
TAF EHGR 210900Z NIL=
ZCZC
FC210900 EHVK     VOLKEL/VOLKEL   NLD   21 m.
TAF EHVK 210900Z NIL=
ZCZC
FC210900 EHWO     WOENSDRECHT/WOENSDRECHT   NLD   19 m.
TAF EHWO 210900Z NIL=
ZCZC
FT211100 EHAM     AMSTERDAM/SCHIPHOL   NLD   -3 m.
TAF EHAM 211055Z 2112/2218 21009KT 9999 SCT040
    BECMG 2122/2201 31005KT 6000 -RADZ SCT012 BKN016
    TEMPO 2123/2203 4000 -DZRA BKN008
    BECMG 2201/2203 36010KT 9999 NSW SCT025
    BECMG 2215/2218 32005KT=
ZCZC
FT211100 EHBK     MAASTRICHT/MAASTRICHT-AACHEN   NLD   114 m.
TAF EHBK 211105Z 2112/2218 VRB03KT CAVOK
    BECMG 2122/2201 7000
    BECMG 2204/2206 4500 -DZRA BKN008
    TEMPO 2204/2208 2000 DZRA BKN004
    PROB30 TEMPO 2205/2208 1200 DZ BKN002
    BECMG 2209/2212 01010KT 9999 NSW SCT025
    BECMG 2215/2218 34005KT=
ZCZC
FT211100 EHGG     GRONINGEN/EELDE   NLD   5 m.
TAF EHGG 211105Z 2112/2218 23011KT 9999 SCT018 BKN040
    BECMG 2122/2201 7000 -RADZ BKN012
    PROB40 TEMPO 2123/2204 3500 DZRA BKN008
    BECMG 2200/2203 36005KT
    BECMG 2203/2206 9999 NSW SCT025
    BECMG 2210/2213 33012KT
    BECMG 2215/2218 28005KT=
ZCZC
FT211100 EHRD     ROTTERDAM/THE HAGUE AIRPORT   NLD   -5 m.
TAF EHRD 211055Z 2112/2218 21009KT 9999 SCT040
    BECMG 2122/2201 31005KT 6000 -RADZ SCT012 BKN016
    TEMPO 2123/2204 4000 -DZRA BKN008
    BECMG 2202/2204 36010KT 9999 NSW SCT025
    BECMG 2215/2218 32005KT=
ZCZC
FT211100 EHEH     EINDHOVEN/EINDHOVEN   NLD   22 m.
TAF EHEH 211131Z 2112/2218 18004KT 9999 BKN040
    BECMG 2202/2205 36010KT 3000 -DZRA SCT005 BKN008 OVC010
    BECMG 2205/2208 7000 SCT015 BKN025
    BECMG 2208/2210 CAVOK=
ZCZC
FC211300 EHKD RRA DE KOOY/DE KOOY   NLD   1 m.
TAF EHKD 211248Z 2113/2201 20018KT 9999 BKN015 BKN040
    BECMG 2118/2121 27010KT FEW007 SCT012 BKN020
    TEMPO 2121/2201 4000 -DZRA FEW005 BKN008 OVC012
    BECMG 2123/2201 36015KT=
ZCZC
FC211300 EHLW RRB LEEUWARDEN/LEEUWARDEN   NLD   1 m.
TAF EHLW 211302Z 2113/2201 21012KT 9999 SCT020 BKN035
    BECMG 2118/2221 27010KT SCT007 BKN010 BKN015
    TEMPO 2121/2201 4000 -DZRA SCT004 BKN007 OVC010
    BECMG 2200/2201 35015KT=
Bron: KNMI website
Laatste update op 21-10-2018 om 17:44
ZCZC
SA211455 EHFS     VLISSINGEN AWS   NLD   8 m.
METAR EHFS 211455Z AUTO 25002KT 9999 NCD 17/09 Q1026 W///H///=
ZCZC
SA211525 EHKD     DE KOOY/DE KOOY   NLD   1 m.
METAR EHKD 211525Z AUTO 21013KT 180V240 9999 OVC013 15/11 Q1025
GRN 21014KT 9000 SCT012 BKN035=
ZCZC
SA211525 EHFD     F3-FB-1   NLD   50 m.
METAR EHFD 211525Z AUTO 24021KT //// // SCT006/// BKN007/// BKN008///
13/12 Q1022 RE// W///H///=
ZCZC
SA211525 EHAM     AMSTERDAM/SCHIPHOL   NLD   -3 m.
METAR EHAM 211525Z 20008KT 170V230 9999 BKN040 15/09 Q1026 NOSIG=
ZCZC
SA211525 EHVL     VLIELAND   NLD   10 m.
METAR EHVL 211525Z AUTO 21018KT 9000 BR BKN011 15/13 Q1024 GRN=
ZCZC
SA211525 EHJR     K13-A   NLD   37 m.
METAR EHJR 211525Z AUTO 23018KT //// // ///////// 15/13 Q1024 RE//
W16/H10=
ZCZC
SA211525 EHLW     LEEUWARDEN/LEEUWARDEN   NLD   1 m.
METAR EHLW 211525Z AUTO 20010KT 170V230 9999 OVC016 14/09 Q1025 WHT=
ZCZC
SA211525 EHDL     ARNHEM/DEELEN   NLD   48 m.
METAR EHDL 211525Z AUTO 20004KT 140V250 9999 SCT039 SCT370 15/08
Q1026 BLU=
ZCZC
SA211525 EHGG     GRONINGEN/EELDE   NLD   5 m.
METAR EHGG 211525Z AUTO 20009KT 170V230 9999 FEW028 OVC031 15/09
Q1025 NOSIG=
ZCZC
SA211525 EHSC     LICHTEILAND GOEREE   NLD   22 m.
METAR EHSC 211525Z AUTO 21014KT 9000 ///////// 15/11 Q1026 W16/H5=
ZCZC
SA211525 EHSA     EURO PLATFORM   NLD   19 m.
METAR EHSA 211525Z AUTO 20016KT 9000 ///////// 15/13 Q1026 W15/H6=
ZCZC
SA211525 EHWO     WOENSDRECHT/WOENSDRECHT   NLD   19 m.
METAR EHWO 211525Z AUTO VRB02KT 9999 NCD 17/09 Q1026 BLU=
ZCZC
SA211525 EHRD     ROTTERDAM/THE HAGUE AIRPORT   NLD   -5 m.
METAR EHRD 211525Z AUTO 19007KT 9999 OVC041 15/09 Q1026 NOSIG=
ZCZC
SA211525 EHGR     GILZE-RIJEN/GILZE-RIJEN   NLD   14 m.
METAR EHGR 211525Z AUTO 20003KT 160V250 9999 NCD 16/08 Q1026 BLU=
ZCZC
SA211525 EHEH     EINDHOVEN/EINDHOVEN   NLD   22 m.
METAR EHEH 211525Z AUTO 21003KT 150V260 9999 OVC360 17/06 Q1026
BLU VRB03KT 9999 FEW040=
ZCZC
SA211525 EHVK     VOLKEL/VOLKEL   NLD   21 m.
METAR EHVK 211525Z AUTO 18004KT 150V210 9999 NCD 16/06 Q1026 BLU=
ZCZC
SA211525 EHBK     MAASTRICHT/MAASTRICHT-AACHEN   NLD   114 m.
METAR EHBK 211525Z AUTO 00000KT 9999 NSC 17/06 Q1026 NOSIG=
ZCZC
SA211525 EHFZ     F16-A   NLD   43 m.
METAR EHFZ 211525Z AUTO 24018KT 9999 FEW041 14/12 Q1023 W///H///=
ZCZC
SA211525 EHKV     K14-FA-1C   NLD   41 m.
METAR EHKV 211525Z AUTO 22021KT 9999 NSC 16/13 Q1024 W///H///=
ZCZC
SA211525 EHMG     L9-FF-1   NLD   44 m.
METAR EHMG 211525Z AUTO 22025KT 9999 NCD 16/13 Q1024 W///H///=
ZCZC
SA211525 EHMA     AWG-1   NLD   40 m.
METAR EHMA 211525Z AUTO 21023KT 170V250 9999 SCT014 BKN037 BKN042
15/10 Q1024 W///H///=
ZCZC
SA211525 EHDV     D15-FA-1   NLD   42 m.
METAR EHDV 211525Z AUTO 26014KT 9999 FEW005/// SCT031/// BKN036///
14/12 Q1023 W///H///=
ZCZC
SA211525 EHAK     A12-CPP   NLD   48 m.
METAR EHAK 211525Z AUTO 25019KT 3700 BR FEW003/// SCT010/// BKN019///
13/13 Q1021 REDZ W///H///=
ZCZC
SA211525 EHQE     HOORN-A   NLD   50 m.
METAR EHQE 211525Z AUTO 19019KT 9999 SCT012 16/13 Q1025 W///H///=
ZCZC
SA211525 EHJA     J6-A   NLD   45 m.
METAR EHJA 211525Z AUTO 24019KT 9999 FEW022/// 14/12 Q1024 W///H///=
ZCZC
SA211525 EHPG     P11-B   NLD   41 m.
METAR EHPG 211525Z AUTO 21020KT 9999 NSC 16/12 Q1024 W///H///=
ZCZC
SA211525 EHHW     BUITENGAATS/BG-OHVS2      42 m.
METAR EHHW 211525Z AUTO 23018KT //// // FEW007/// SCT008/// BKN009///
15/13 Q1024 RE// W///H///=